sensor_id;sensor_type;location;lat;lon;timestamp;pressure;altitude;pressure_sealevel;temperature;humidity
18813;BME280;9534;51.140;6.296;2023-08-06T00:00:15;101956.78;;;14.65;100.00
18813;BME280;9534;51.140;6.296;2023-08-06T00:04:19;101941.09;;;14.59;100.00
18813;BME280;9534;51.140;6.296;2023-08-06T00:08:22;101981.31;;;14.47;100.00
18813;BME280;9534;51.140;6.296;2023-08-06T00:12:27;101976.22;;;14.44;100.00
18813;BME280;9534;51.140;6.296;2023-08-06T00:16:31;101962.59;;;14.36;100.00
18813;BME280;9534;51.140;6.296;2023-08-06T00:20:34;101970.59;;;14.31;100.00
18813;BME280;9534;51.140;6.296;2023-08-06T00:24:37;101963.00;;;14.33;100.00
18813;BME280;9534;51.140;6.296;2023-08-06T00:28:41;101945.66;;;14.39;100.00
18813;BME280;9534;51.140;6.296;2023-08-06T00:32:45;101950.75;;;14.42;100.00
18813;BME280;9534;51.140;6.296;2023-08-06T00:36:48;101950.53;;;14.37;100.00
18813;BME280;9534;51.140;6.296;2023-08-06T00:40:51;101950.06;;;14.34;100.00
18813;BME280;9534;51.140;6.296;2023-08-06T00:44:55;101942.09;;;14.45;100.00
18813;BME280;9534;51.140;6.296;2023-08-06T00:49:00;101949.66;;;14.37;100.00
18813;BME280;9534;51.140;6.296;2023-08-06T00:53:03;101965.34;;;14.36;100.00
18813;BME280;9534;51.140;6.296;2023-08-06T00:57:06;101966.00;;;14.38;100.00
18813;BME280;9534;51.140;6.296;2023-08-06T01:01:10;101982.53;;;14.38;100.00
18813;BME280;9534;51.140;6.296;2023-08-06T01:05:14;101989.72;;;14.39;100.00
18813;BME280;9534;51.140;6.296;2023-08-06T01:09:21;101982.53;;;14.38;100.00
18813;BME280;9534;51.140;6.296;2023-08-06T01:13:28;101976.38;;;14.36;100.00
18813;BME280;9534;51.140;6.296;2023-08-06T01:17:35;101973.56;;;14.30;100.00
18813;BME280;9534;51.140;6.296;2023-08-06T01:21:40;101976.13;;;14.31;100.00
18813;BME280;9534;51.140;6.296;2023-08-06T01:25:44;101961.69;;;14.29;100.00
18813;BME280;9534;51.140;6.296;2023-08-06T01:29:52;101968.94;;;14.37;100.00
18813;BME280;9534;51.140;6.296;2023-08-06T01:33:59;101971.94;;;14.42;100.00
18813;BME280;9534;51.140;6.296;2023-08-06T01:38:05;101973.28;;;14.52;100.00
18813;BME280;9534;51.140;6.296;2023-08-06T01:42:08;101973.28;;;14.52;100.00
18813;BME280;9534;51.140;6.296;2023-08-06T01:46:11;101962.69;;;14.56;100.00
18813;BME280;9534;51.140;6.296;2023-08-06T01:50:14;101967.34;;;14.55;100.00
18813;BME280;9534;51.140;6.296;2023-08-06T01:54:18;101966.09;;;14.58;100.00
18813;BME280;9534;51.140;6.296;2023-08-06T01:58:21;101964.00;;;14.60;100.00
18813;BME280;9534;51.140;6.296;2023-08-06T02:02:24;101969.94;;;14.63;100.00
18813;BME280;9534;51.140;6.296;2023-08-06T02:06:27;101983.69;;;14.63;100.00
18813;BME280;9534;51.140;6.296;2023-08-06T02:10:32;101988.56;;;14.61;100.00
18813;BME280;9534;51.140;6.296;2023-08-06T02:14:35;101976.69;;;14.54;100.00
18813;BME280;9534;51.140;6.296;2023-08-06T02:18:38;101969.22;;;14.48;100.00
18813;BME280;9534;51.140;6.296;2023-08-06T02:22:41;101964.78;;;14.47;100.00
18813;BME280;9534;51.140;6.296;2023-08-06T02:26:45;101949.06;;;14.41;100.00
18813;BME280;9534;51.140;6.296;2023-08-06T02:30:50;101948.00;;;14.42;100.00
18813;BME280;9534;51.140;6.296;2023-08-06T02:34:53;101939.94;;;14.41;100.00
18813;BME280;9534;51.140;6.296;2023-08-06T02:38:56;101932.94;;;14.38;100.00
18813;BME280;9534;51.140;6.296;2023-08-06T02:43:00;101916.81;;;14.35;100.00
18813;BME280;9534;51.140;6.296;2023-08-06T02:47:04;101918.13;;;14.39;100.00
18813;BME280;9534;51.140;6.296;2023-08-06T02:51:07;101927.44;;;14.45;100.00
18813;BME280;9534;51.140;6.296;2023-08-06T02:55:10;101912.59;;;14.39;100.00
18813;BME280;9534;51.140;6.296;2023-08-06T02:59:19;101912.19;;;14.42;100.00
18813;BME280;9534;51.140;6.296;2023-08-06T03:03:35;101923.66;;;14.46;100.00
18813;BME280;9534;51.140;6.296;2023-08-06T03:07:39;101922.00;;;14.51;100.00
18813;BME280;9534;51.140;6.296;2023-08-06T03:11:49;101920.72;;;14.54;100.00
18813;BME280;9534;51.140;6.296;2023-08-06T03:15:55;101922.44;;;14.61;100.00
18813;BME280;9534;51.140;6.296;2023-08-06T03:19:59;101919.72;;;14.68;100.00
18813;BME280;9534;51.140;6.296;2023-08-06T03:24:04;101918.22;;;14.65;100.00
18813;BME280;9534;51.140;6.296;2023-08-06T03:28:09;101922.25;;;14.69;100.00
18813;BME280;9534;51.140;6.296;2023-08-06T03:32:13;101918.03;;;14.67;100.00
18813;BME280;9534;51.140;6.296;2023-08-06T03:36:17;101923.56;;;14.73;100.00
18813;BME280;9534;51.140;6.296;2023-08-06T03:40:21;101910.81;;;14.66;100.00
18813;BME280;9534;51.140;6.296;2023-08-06T03:44:24;101914.81;;;14.63;100.00
18813;BME280;9534;51.140;6.296;2023-08-06T03:48:30;101914.41;;;14.66;100.00
18813;BME280;9534;51.140;6.296;2023-08-06T03:52:33;101912.28;;;14.62;100.00
18813;BME280;9534;51.140;6.296;2023-08-06T03:56:37;101917.16;;;14.66;100.00
18813;BME280;9534;51.140;6.296;2023-08-06T04:00:40;101916.97;;;14.68;100.00
18813;BME280;9534;51.140;6.296;2023-08-06T04:04:44;101917.38;;;14.65;100.00
18813;BME280;9534;51.140;6.296;2023-08-06T04:08:47;101923.97;;;14.70;100.00
18813;BME280;9534;51.140;6.296;2023-08-06T04:12:50;101930.94;;;14.66;100.00
18813;BME280;9534;51.140;6.296;2023-08-06T04:16:53;101922.03;;;14.64;100.00
18813;BME280;9534;51.140;6.296;2023-08-06T04:20:58;101924.53;;;14.59;100.00
18813;BME280;9534;51.140;6.296;2023-08-06T04:25:01;101920.09;;;14.58;100.00
18813;BME280;9534;51.140;6.296;2023-08-06T04:29:04;101921.59;;;14.54;100.00
18813;BME280;9534;51.140;6.296;2023-08-06T04:33:08;101928.34;;;14.58;100.00
18813;BME280;9534;51.140;6.296;2023-08-06T04:37:13;101934.72;;;14.59;100.00
18813;BME280;9534;51.140;6.296;2023-08-06T04:41:16;101938.56;;;14.64;100.00
18813;BME280;9534;51.140;6.296;2023-08-06T04:45:19;101945.38;;;14.68;100.00
18813;BME280;9534;51.140;6.296;2023-08-06T04:49:22;101953.38;;;14.63;100.00
18813;BME280;9534;51.140;6.296;2023-08-06T04:53:27;101961.66;;;14.63;100.00
18813;BME280;9534;51.140;6.296;2023-08-06T04:57:30;101959.38;;;14.67;100.00
18813;BME280;9534;51.140;6.296;2023-08-06T05:01:33;101958.09;;;14.69;100.00
18813;BME280;9534;51.140;6.296;2023-08-06T05:05:36;101968.03;;;14.64;100.00
18813;BME280;9534;51.140;6.296;2023-08-06T05:09:40;101978.44;;;14.68;100.00
18813;BME280;9534;51.140;6.296;2023-08-06T05:13:44;101981.66;;;14.72;100.00
18813;BME280;9534;51.140;6.296;2023-08-06T05:17:47;101990.97;;;14.71;100.00
18813;BME280;9534;51.140;6.296;2023-08-06T05:21:50;102012.38;;;14.75;100.00
18813;BME280;9534;51.140;6.296;2023-08-06T05:25:54;102007.03;;;14.67;100.00
18813;BME280;9534;51.140;6.296;2023-08-06T05:29:57;102007.69;;;14.69;100.00
18813;BME280;9534;51.140;6.296;2023-08-06T05:34:00;102018.78;;;14.76;100.00
18813;BME280;9534;51.140;6.296;2023-08-06T05:38:04;102032.75;;;14.74;100.00
18813;BME280;9534;51.140;6.296;2023-08-06T05:42:09;102033.63;;;14.81;100.00
18813;BME280;9534;51.140;6.296;2023-08-06T05:46:12;102043.34;;;14.71;100.00
18813;BME280;9534;51.140;6.296;2023-08-06T05:50:16;102038.16;;;14.61;100.00
18813;BME280;9534;51.140;6.296;2023-08-06T05:54:19;102041.16;;;14.66;100.00
18813;BME280;9534;51.140;6.296;2023-08-06T05:58:23;102051.78;;;14.69;100.00
18813;BME280;9534;51.140;6.296;2023-08-06T06:02:28;102059.91;;;14.77;100.00
18813;BME280;9534;51.140;6.296;2023-08-06T06:06:31;102062.16;;;14.67;100.00
18813;BME280;9534;51.140;6.296;2023-08-06T06:10:34;102073.09;;;14.82;100.00
18813;BME280;9534;51.140;6.296;2023-08-06T06:14:39;102081.59;;;14.86;100.00
18813;BME280;9534;51.140;6.296;2023-08-06T06:18:42;102085.84;;;14.89;100.00
18813;BME280;9534;51.140;6.296;2023-08-06T06:22:46;102093.91;;;14.90;100.00
18813;BME280;9534;51.140;6.296;2023-08-06T06:26:49;102104.81;;;15.05;100.00
18813;BME280;9534;51.140;6.296;2023-08-06T06:30:53;102112.69;;;15.14;100.00
18813;BME280;9534;51.140;6.296;2023-08-06T06:35:02;102124.25;;;15.31;100.00
18813;BME280;9534;51.140;6.296;2023-08-06T06:39:06;102124.25;;;15.31;100.00
18813;BME280;9534;51.140;6.296;2023-08-06T06:43:10;102125.66;;;15.54;100.00
18813;BME280;9534;51.140;6.296;2023-08-06T06:47:14;102126.25;;;15.50;100.00
18813;BME280;9534;51.140;6.296;2023-08-06T06:51:17;102129.50;;;15.60;100.00
18813;BME280;9534;51.140;6.296;2023-08-06T06:55:20;102135.06;;;15.66;100.00
18813;BME280;9534;51.140;6.296;2023-08-06T06:59:23;102135.00;;;15.60;100.00
18813;BME280;9534;51.140;6.296;2023-08-06T07:03:27;102133.13;;;15.67;100.00
18813;BME280;9534;51.140;6.296;2023-08-06T07:07:30;102139.38;;;15.95;100.00
18813;BME280;9534;51.140;6.296;2023-08-06T07:11:34;102145.72;;;15.89;100.00
18813;BME280;9534;51.140;6.296;2023-08-06T07:15:36;102138.50;;;15.81;100.00
18813;BME280;9534;51.140;6.296;2023-08-06T07:19:41;102146.38;;;15.97;100.00
18813;BME280;9534;51.140;6.296;2023-08-06T07:23:44;102152.38;;;16.20;100.00
18813;BME280;9534;51.140;6.296;2023-08-06T07:27:48;102158.50;;;16.03;100.00
18813;BME280;9534;51.140;6.296;2023-08-06T07:31:50;102159.56;;;16.02;100.00
18813;BME280;9534;51.140;6.296;2023-08-06T07:35:55;102168.59;;;15.70;100.00
18813;BME280;9534;51.140;6.296;2023-08-06T07:39:58;102156.69;;;15.63;100.00
18813;BME280;9534;51.140;6.296;2023-08-06T07:44:01;102160.88;;;15.52;100.00
18813;BME280;9534;51.140;6.296;2023-08-06T07:48:04;102161.72;;;15.46;100.00
18813;BME280;9534;51.140;6.296;2023-08-06T07:52:09;102168.88;;;15.41;100.00
18813;BME280;9534;51.140;6.296;2023-08-06T07:56:12;102160.66;;;15.47;100.00
18813;BME280;9534;51.140;6.296;2023-08-06T08:00:15;102159.53;;;15.42;100.00
18813;BME280;9534;51.140;6.296;2023-08-06T08:04:19;102159.00;;;15.19;100.00
18813;BME280;9534;51.140;6.296;2023-08-06T08:08:25;102160.28;;;15.23;100.00
18813;BME280;9534;51.140;6.296;2023-08-06T08:12:28;102166.06;;;15.34;100.00
18813;BME280;9534;51.140;6.296;2023-08-06T08:16:31;102174.47;;;15.54;100.00
18813;BME280;9534;51.140;6.296;2023-08-06T08:20:34;102177.41;;;15.46;100.00
18813;BME280;9534;51.140;6.296;2023-08-06T08:24:38;102191.25;;;15.59;100.00
18813;BME280;9534;51.140;6.296;2023-08-06T08:28:41;102205.53;;;15.69;100.00
18813;BME280;9534;51.140;6.296;2023-08-06T08:32:44;102214.47;;;15.71;100.00
18813;BME280;9534;51.140;6.296;2023-08-06T08:36:47;102207.09;;;15.44;100.00
18813;BME280;9534;51.140;6.296;2023-08-06T08:40:53;102206.84;;;15.05;100.00
18813;BME280;9534;51.140;6.296;2023-08-06T08:44:56;102207.59;;;15.20;100.00
18813;BME280;9534;51.140;6.296;2023-08-06T08:49:00;102208.78;;;15.11;100.00
18813;BME280;9534;51.140;6.296;2023-08-06T08:53:03;102217.47;;;15.08;100.00
18813;BME280;9534;51.140;6.296;2023-08-06T08:57:07;102208.53;;;15.06;100.00
18813;BME280;9534;51.140;6.296;2023-08-06T09:01:10;102219.97;;;15.03;100.00
18813;BME280;9534;51.140;6.296;2023-08-06T09:05:14;102215.75;;;15.07;100.00
18813;BME280;9534;51.140;6.296;2023-08-06T09:09:25;102229.81;;;15.12;100.00
18813;BME280;9534;51.140;6.296;2023-08-06T09:13:29;102227.78;;;14.99;100.00
18813;BME280;9534;51.140;6.296;2023-08-06T09:17:32;102233.41;;;14.64;100.00
18813;BME280;9534;51.140;6.296;2023-08-06T09:21:36;102235.69;;;14.54;100.00
18813;BME280;9534;51.140;6.296;2023-08-06T09:25:39;102239.78;;;14.44;100.00
18813;BME280;9534;51.140;6.296;2023-08-06T09:29:44;102247.78;;;14.39;100.00
18813;BME280;9534;51.140;6.296;2023-08-06T09:33:48;102244.97;;;14.32;100.00
18813;BME280;9534;51.140;6.296;2023-08-06T09:37:51;102250.38;;;14.40;100.00
18813;BME280;9534;51.140;6.296;2023-08-06T09:41:55;102262.06;;;14.28;100.00
18813;BME280;9534;51.140;6.296;2023-08-06T09:46:00;102271.66;;;14.32;100.00
18813;BME280;9534;51.140;6.296;2023-08-06T09:50:03;102284.59;;;14.31;100.00
18813;BME280;9534;51.140;6.296;2023-08-06T09:54:09;102298.25;;;14.39;100.00
18813;BME280;9534;51.140;6.296;2023-08-06T09:58:29;102300.47;;;14.50;100.00
18813;BME280;9534;51.140;6.296;2023-08-06T10:02:34;102304.31;;;14.35;100.00
18813;BME280;9534;51.140;6.296;2023-08-06T10:06:38;102298.16;;;14.18;100.00
18813;BME280;9534;51.140;6.296;2023-08-06T10:10:41;102318.41;;;14.25;100.00
18813;BME280;9534;51.140;6.296;2023-08-06T10:14:44;102312.31;;;14.15;100.00
18813;BME280;9534;51.140;6.296;2023-08-06T10:18:50;102322.34;;;14.23;100.00
18813;BME280;9534;51.140;6.296;2023-08-06T10:23:00;102318.88;;;14.14;100.00
18813;BME280;9534;51.140;6.296;2023-08-06T10:27:04;102322.56;;;14.21;100.00
18813;BME280;9534;51.140;6.296;2023-08-06T10:31:07;102332.91;;;14.34;100.00
18813;BME280;9534;51.140;6.296;2023-08-06T10:35:11;102338.97;;;14.44;100.00
18813;BME280;9534;51.140;6.296;2023-08-06T10:39:30;102349.03;;;14.72;100.00
18813;BME280;9534;51.140;6.296;2023-08-06T10:43:34;102355.84;;;14.76;100.00
18813;BME280;9534;51.140;6.296;2023-08-06T10:47:39;102354.69;;;14.85;100.00
18813;BME280;9534;51.140;6.296;2023-08-06T10:51:46;102359.94;;;15.01;100.00
18813;BME280;9534;51.140;6.296;2023-08-06T10:55:49;102387.66;;;15.14;100.00
18813;BME280;9534;51.140;6.296;2023-08-06T10:59:52;102404.94;;;15.43;100.00
18813;BME280;9534;51.140;6.296;2023-08-06T11:04:15;102410.44;;;15.43;100.00
18813;BME280;9534;51.140;6.296;2023-08-06T11:08:27;102435.72;;;15.68;100.00
18813;BME280;9534;51.140;6.296;2023-08-06T11:12:30;102458.59;;;15.62;100.00
18813;BME280;9534;51.140;6.296;2023-08-06T11:16:33;102482.25;;;15.71;100.00
18813;BME280;9534;51.140;6.296;2023-08-06T11:20:36;102520.59;;;16.08;100.00
18813;BME280;9534;51.140;6.296;2023-08-06T11:24:41;102548.94;;;15.95;100.00
18813;BME280;9534;51.140;6.296;2023-08-06T11:28:44;102570.22;;;16.01;100.00
18813;BME280;9534;51.140;6.296;2023-08-06T11:32:47;102607.78;;;15.75;100.00
18813;BME280;9534;51.140;6.296;2023-08-06T11:36:50;102641.19;;;15.80;100.00
18813;BME280;9534;51.140;6.296;2023-08-06T11:40:55;102654.94;;;15.59;100.00
18813;BME280;9534;51.140;6.296;2023-08-06T11:44:58;102676.53;;;15.70;100.00
18813;BME280;9534;51.140;6.296;2023-08-06T11:49:01;102774.53;;;15.59;100.00
18813;BME280;9534;51.140;6.296;2023-08-06T11:53:04;102827.25;;;15.64;100.00
18813;BME280;9534;51.140;6.296;2023-08-06T11:57:09;102874.75;;;15.60;100.00
18813;BME280;9534;51.140;6.296;2023-08-06T12:01:13;102909.31;;;15.70;100.00
18813;BME280;9534;51.140;6.296;2023-08-06T12:05:17;102868.16;;;15.46;100.00
18813;BME280;9534;51.140;6.296;2023-08-06T12:09:22;102852.94;;;15.50;100.00
18813;BME280;9534;51.140;6.296;2023-08-06T12:13:26;102838.97;;;15.81;100.00
18813;BME280;9534;51.140;6.296;2023-08-06T12:17:30;102867.94;;;16.34;100.00
18813;BME280;9534;51.140;6.296;2023-08-06T12:21:33;102926.47;;;16.38;100.00
18813;BME280;9534;51.140;6.296;2023-08-06T12:25:36;103006.53;;;16.60;100.00
18813;BME280;9534;51.140;6.296;2023-08-06T12:29:42;103052.94;;;16.21;100.00
18813;BME280;9534;51.140;6.296;2023-08-06T12:33:45;103000.81;;;16.18;100.00
18813;BME280;9534;51.140;6.296;2023-08-06T12:37:48;102912.97;;;16.00;100.00
18813;BME280;9534;51.140;6.296;2023-08-06T12:41:52;102819.44;;;15.82;100.00
18813;BME280;9534;51.140;6.296;2023-08-06T12:46:00;102762.25;;;15.97;100.00
18813;BME280;9534;51.140;6.296;2023-08-06T12:50:03;102751.47;;;16.16;100.00
18813;BME280;9534;51.140;6.296;2023-08-06T12:54:09;102723.38;;;15.78;100.00
18813;BME280;9534;51.140;6.296;2023-08-06T12:58:15;102682.28;;;15.54;100.00
18813;BME280;9534;51.140;6.296;2023-08-06T13:02:19;102658.88;;;15.64;100.00
18813;BME280;9534;51.140;6.296;2023-08-06T13:06:22;102663.41;;;15.72;100.00
18813;BME280;9534;51.140;6.296;2023-08-06T13:10:25;102684.31;;;15.81;100.00
18813;BME280;9534;51.140;6.296;2023-08-06T13:14:30;102701.22;;;15.71;100.00
18813;BME280;9534;51.140;6.296;2023-08-06T13:18:35;102735.94;;;15.66;100.00
18813;BME280;9534;51.140;6.296;2023-08-06T13:22:38;102735.09;;;16.36;100.00
18813;BME280;9534;51.140;6.296;2023-08-06T13:26:41;102778.34;;;16.85;100.00
18813;BME280;9534;51.140;6.296;2023-08-06T13:30:45;102796.06;;;16.49;100.00
18813;BME280;9534;51.140;6.296;2023-08-06T13:34:50;102822.00;;;15.84;100.00
18813;BME280;9534;51.140;6.296;2023-08-06T13:38:53;102736.16;;;15.50;100.00
18813;BME280;9534;51.140;6.296;2023-08-06T13:42:57;102695.44;;;15.23;100.00
18813;BME280;9534;51.140;6.296;2023-08-06T13:47:00;102641.59;;;15.27;100.00
18813;BME280;9534;51.140;6.296;2023-08-06T13:51:04;102620.56;;;15.40;100.00
18813;BME280;9534;51.140;6.296;2023-08-06T13:55:08;102625.53;;;15.66;100.00
18813;BME280;9534;51.140;6.296;2023-08-06T13:59:11;102650.78;;;15.84;100.00
18813;BME280;9534;51.140;6.296;2023-08-06T14:03:15;102684.22;;;16.09;100.00
18813;BME280;9534;51.140;6.296;2023-08-06T14:07:19;102779.66;;;16.47;100.00
18813;BME280;9534;51.140;6.296;2023-08-06T14:11:22;102924.69;;;16.80;100.00
18813;BME280;9534;51.140;6.296;2023-08-06T14:15:25;103053.72;;;16.73;100.00
18813;BME280;9534;51.140;6.296;2023-08-06T14:19:29;103126.78;;;16.64;100.00
18813;BME280;9534;51.140;6.296;2023-08-06T14:23:33;103196.72;;;16.87;100.00
18813;BME280;9534;51.140;6.296;2023-08-06T14:27:36;103277.53;;;16.97;100.00
18813;BME280;9534;51.140;6.296;2023-08-06T14:31:40;103320.00;;;17.04;100.00
18813;BME280;9534;51.140;6.296;2023-08-06T14:35:43;103364.94;;;17.43;100.00
18813;BME280;9534;51.140;6.296;2023-08-06T14:39:48;103367.78;;;17.35;100.00
18813;BME280;9534;51.140;6.296;2023-08-06T14:43:51;103332.88;;;16.75;100.00
18813;BME280;9534;51.140;6.296;2023-08-06T14:47:54;103315.56;;;16.58;100.00
18813;BME280;9534;51.140;6.296;2023-08-06T14:51:58;103267.88;;;16.56;100.00
18813;BME280;9534;51.140;6.296;2023-08-06T14:56:05;103254.13;;;16.48;100.00
18813;BME280;9534;51.140;6.296;2023-08-06T15:00:08;103240.44;;;16.69;100.00
18813;BME280;9534;51.140;6.296;2023-08-06T15:04:12;103254.13;;;16.48;100.00
18813;BME280;9534;51.140;6.296;2023-08-06T15:08:16;103188.78;;;16.10;100.00
18813;BME280;9534;51.140;6.296;2023-08-06T15:12:21;103041.00;;;16.07;100.00
18813;BME280;9534;51.140;6.296;2023-08-06T15:16:24;102976.75;;;15.90;100.00
18813;BME280;9534;51.140;6.296;2023-08-06T15:20:27;102926.47;;;15.95;100.00
18813;BME280;9534;51.140;6.296;2023-08-06T15:24:30;102887.41;;;15.83;100.00
18813;BME280;9534;51.140;6.296;2023-08-06T15:28:45;102873.16;;;15.65;100.00
18813;BME280;9534;51.140;6.296;2023-08-06T15:32:48;102848.00;;;15.60;100.00
18813;BME280;9534;51.140;6.296;2023-08-06T15:36:51;102858.94;;;15.54;100.00
18813;BME280;9534;51.140;6.296;2023-08-06T15:40:55;102831.13;;;15.41;100.00
18813;BME280;9534;51.140;6.296;2023-08-06T15:44:59;102802.34;;;15.35;100.00
18813;BME280;9534;51.140;6.296;2023-08-06T15:49:04;102799.13;;;15.32;100.00
18813;BME280;9534;51.140;6.296;2023-08-06T15:53:07;102787.38;;;15.38;100.00
18813;BME280;9534;51.140;6.296;2023-08-06T15:57:12;102778.28;;;15.29;100.00
18813;BME280;9534;51.140;6.296;2023-08-06T16:01:18;102757.09;;;15.30;100.00
18813;BME280;9534;51.140;6.296;2023-08-06T16:05:21;102752.78;;;15.27;100.00
18813;BME280;9534;51.140;6.296;2023-08-06T16:09:25;102750.31;;;15.18;100.00
18813;BME280;9534;51.140;6.296;2023-08-06T16:13:29;102728.63;;;15.15;100.00
18813;BME280;9534;51.140;6.296;2023-08-06T16:17:33;102724.53;;;15.11;100.00
18813;BME280;9534;51.140;6.296;2023-08-06T16:21:37;102720.44;;;15.07;100.00
18813;BME280;9534;51.140;6.296;2023-08-06T16:25:40;102718.59;;;14.99;100.00
18813;BME280;9534;51.140;6.296;2023-08-06T16:29:46;102721.94;;;14.95;100.00
18813;BME280;9534;51.140;6.296;2023-08-06T16:33:51;102735.50;;;14.82;100.00
18813;BME280;9534;51.140;6.296;2023-08-06T16:37:54;102739.88;;;14.77;100.00
18813;BME280;9534;51.140;6.296;2023-08-06T16:41:57;102759.13;;;14.62;100.00
18813;BME280;9534;51.140;6.296;2023-08-06T16:46:01;102746.34;;;14.47;100.00
18813;BME280;9534;51.140;6.296;2023-08-06T16:50:06;102748.31;;;14.38;100.00
18813;BME280;9534;51.140;6.296;2023-08-06T16:54:12;102759.88;;;14.34;100.00
18813;BME280;9534;51.140;6.296;2023-08-06T16:58:15;102765.88;;;14.37;100.00
18813;BME280;9534;51.140;6.296;2023-08-06T17:02:18;102756.59;;;14.38;100.00
18813;BME280;9534;51.140;6.296;2023-08-06T17:06:23;102758.28;;;14.39;100.00
18813;BME280;9534;51.140;6.296;2023-08-06T17:10:26;102753.81;;;14.38;100.00
18813;BME280;9534;51.140;6.296;2023-08-06T17:14:29;102747.34;;;14.31;100.00
18813;BME280;9534;51.140;6.296;2023-08-06T17:18:32;102754.88;;;14.37;100.00
18813;BME280;9534;51.140;6.296;2023-08-06T17:22:36;102796.91;;;14.31;100.00
18813;BME280;9534;51.140;6.296;2023-08-06T17:26:39;102800.72;;;14.30;100.00
18813;BME280;9534;51.140;6.296;2023-08-06T17:30:42;102815.22;;;14.16;100.00
18813;BME280;9534;51.140;6.296;2023-08-06T17:34:45;102826.59;;;14.13;100.00
18813;BME280;9534;51.140;6.296;2023-08-06T17:38:50;102819.56;;;14.11;100.00
18813;BME280;9534;51.140;6.296;2023-08-06T17:42:53;102822.16;;;14.04;100.00
18813;BME280;9534;51.140;6.296;2023-08-06T17:46:56;102837.53;;;13.99;100.00
18813;BME280;9534;51.140;6.296;2023-08-06T17:50:59;102843.19;;;13.97;100.00
18813;BME280;9534;51.140;6.296;2023-08-06T17:55:04;102846.16;;;13.96;100.00
18813;BME280;9534;51.140;6.296;2023-08-06T17:59:08;102832.75;;;13.85;100.00
18813;BME280;9534;51.140;6.296;2023-08-06T18:03:11;102842.22;;;13.82;100.00
18813;BME280;9534;51.140;6.296;2023-08-06T18:07:14;102839.69;;;13.73;100.00
18813;BME280;9534;51.140;6.296;2023-08-06T18:11:18;102838.13;;;13.70;100.00
18813;BME280;9534;51.140;6.296;2023-08-06T18:15:21;102844.88;;;13.68;100.00
18813;BME280;9534;51.140;6.296;2023-08-06T18:19:24;102832.69;;;13.62;100.00
18813;BME280;9534;51.140;6.296;2023-08-06T18:23:27;102833.06;;;13.52;100.00
18813;BME280;9534;51.140;6.296;2023-08-06T18:27:32;102828.78;;;13.41;100.00
18813;BME280;9534;51.140;6.296;2023-08-06T18:31:35;102836.34;;;13.39;100.00
18813;BME280;9534;51.140;6.296;2023-08-06T18:35:39;102817.28;;;13.38;100.00
18813;BME280;9534;51.140;6.296;2023-08-06T18:39:42;102835.84;;;13.36;100.00
18813;BME280;9534;51.140;6.296;2023-08-06T18:43:47;102829.31;;;13.37;100.00
18813;BME280;9534;51.140;6.296;2023-08-06T18:47:51;102834.97;;;13.35;100.00
18813;BME280;9534;51.140;6.296;2023-08-06T18:51:54;102844.59;;;13.39;100.00
18813;BME280;9534;51.140;6.296;2023-08-06T18:55:57;102842.38;;;13.43;100.00
18813;BME280;9534;51.140;6.296;2023-08-06T19:00:01;102841.34;;;13.44;100.00
18813;BME280;9534;51.140;6.296;2023-08-06T19:04:05;102850.63;;;13.43;100.00
18813;BME280;9534;51.140;6.296;2023-08-06T19:08:08;102851.31;;;13.45;100.00
18813;BME280;9534;51.140;6.296;2023-08-06T19:12:13;102860.25;;;13.47;100.00
18813;BME280;9534;51.140;6.296;2023-08-06T19:16:18;102871.59;;;13.44;100.00
18813;BME280;9534;51.140;6.296;2023-08-06T19:20:21;102874.16;;;13.45;100.00
18813;BME280;9534;51.140;6.296;2023-08-06T19:24:24;102883.78;;;13.41;100.00
18813;BME280;9534;51.140;6.296;2023-08-06T19:28:27;102874.00;;;13.39;100.00
18813;BME280;9534;51.140;6.296;2023-08-06T19:32:32;102888.59;;;13.31;100.00
18813;BME280;9534;51.140;6.296;2023-08-06T19:36:36;102869.03;;;13.26;100.00
18813;BME280;9534;51.140;6.296;2023-08-06T19:40:39;102890.66;;;13.29;100.00
18813;BME280;9534;51.140;6.296;2023-08-06T19:44:41;102883.31;;;13.22;100.00
18813;BME280;9534;51.140;6.296;2023-08-06T19:48:46;102892.59;;;13.21;100.00
18813;BME280;9534;51.140;6.296;2023-08-06T19:52:49;102901.53;;;13.15;100.00
18813;BME280;9534;51.140;6.296;2023-08-06T19:56:52;102892.94;;;13.18;100.00
18813;BME280;9534;51.140;6.296;2023-08-06T20:00:55;102904.94;;;13.17;100.00
18813;BME280;9534;51.140;6.296;2023-08-06T20:05:01;102913.53;;;13.14;100.00
18813;BME280;9534;51.140;6.296;2023-08-06T20:09:05;102903.25;;;13.16;100.00
18813;BME280;9534;51.140;6.296;2023-08-06T20:13:08;102907.03;;;13.15;100.00
18813;BME280;9534;51.140;6.296;2023-08-06T20:17:11;102911.81;;;13.13;100.00
18813;BME280;9534;51.140;6.296;2023-08-06T20:21:15;102914.22;;;13.16;100.00
18813;BME280;9534;51.140;6.296;2023-08-06T20:25:18;102920.75;;;13.15;100.00
18813;BME280;9534;51.140;6.296;2023-08-06T20:29:21;102923.88;;;13.20;100.00
18813;BME280;9534;51.140;6.296;2023-08-06T20:33:24;102924.91;;;13.19;100.00
18813;BME280;9534;51.140;6.296;2023-08-06T20:37:29;102927.66;;;13.19;100.00
18813;BME280;9534;51.140;6.296;2023-08-06T20:41:32;102939.34;;;13.21;100.00
18813;BME280;9534;51.140;6.296;2023-08-06T20:45:35;102923.53;;;13.23;100.00
18813;BME280;9534;51.140;6.296;2023-08-06T20:49:38;102940.19;;;13.21;100.00
18813;BME280;9534;51.140;6.296;2023-08-06T20:53:43;102928.84;;;13.16;100.00
18813;BME280;9534;51.140;6.296;2023-08-06T20:57:46;102937.94;;;13.09;100.00
18813;BME280;9534;51.140;6.296;2023-08-06T21:01:49;102937.94;;;13.09;100.00
18813;BME280;9534;51.140;6.296;2023-08-06T21:05:58;102940.88;;;13.07;100.00
18813;BME280;9534;51.140;6.296;2023-08-06T21:10:03;102956.84;;;13.12;100.00
18813;BME280;9534;51.140;6.296;2023-08-06T21:14:06;102955.31;;;13.09;100.00